Decoded Metar for LZSL (SLIAC in SLOVAKIA) (IATA:SLD) | Meteo·Mobile Aviation Weather
aviador You're here:

LZSL Decoded Metar

SLIAC in SLOVAKIA
Report Time2019-02-17 07:00:00
UTC Time2019-02-17 07:21:47
Flight Rules lifr LIFR
WindVRB at 01 kt
Visibility0200 m
Phenomena:Freezing Fog
Clouds:Overcast 001 Hf
Expected CloudBase > 400 ft AGL from Temp-Dew spread
Ceiling100 ft
Temp-4°C (ISA -17)
Dew Point-5°C (93% RH)
AAT-7.0°C
QNH1029 hPa
Density Alt-1,542 ft
Elevation1,027 ft
Report Wrong Elevation
Raw Report
LZSL 170700Z VRB01KT 0200 FZFG OVC001 M04/M05 Q1029=

Extra information for LZSL:More info

Metar Taf Metar & Taf Last 4 Metars F.Rules Stats Wind Profile Meteogram Temp Stats Airport Information Weather charts Add Link Nearby VenuesMetar ALERT Operation Metar Decoded Social comments